createdAt,value
2022-10-25T00:00:28.046Z,12.73
2022-10-25T00:01:32.391Z,12.75
2022-10-25T00:02:37.111Z,12.76
2022-10-25T00:03:38.884Z,12.78
2022-10-25T00:04:40.790Z,12.78
2022-10-25T00:05:42.910Z,12.77
2022-10-25T00:06:45.344Z,12.81
2022-10-25T00:07:47.374Z,12.85
2022-10-25T00:08:49.551Z,12.88
2022-10-25T00:09:51.369Z,12.92
2022-10-25T00:10:53.245Z,12.96
2022-10-25T00:11:55.040Z,12.95
2022-10-25T00:12:56.957Z,12.93
2022-10-25T00:13:59.897Z,12.91
2022-10-25T00:15:02.160Z,12.91
2022-10-25T00:16:04.147Z,12.89
2022-10-25T00:17:05.928Z,12.88
2022-10-25T00:18:07.876Z,12.87
2022-10-25T00:19:12.052Z,12.80
2022-10-25T00:20:13.978Z,12.81
2022-10-25T00:21:15.793Z,12.82
2022-10-25T00:22:17.547Z,12.84
2022-10-25T00:23:19.412Z,12.88
2022-10-25T00:24:21.207Z,12.92
2022-10-25T00:25:23.069Z,12.90
2022-10-25T00:26:24.912Z,12.89
2022-10-25T00:27:26.891Z,12.87
2022-10-25T00:28:28.833Z,12.85
2022-10-25T00:29:30.659Z,12.86
2022-10-25T00:30:32.451Z,12.85
2022-10-25T00:31:34.542Z,12.80
2022-10-25T00:32:36.410Z,12.78
2022-10-25T00:33:38.728Z,12.78
2022-10-25T00:34:40.803Z,12.80
2022-10-25T00:35:42.600Z,12.83
2022-10-25T00:36:44.455Z,12.80
2022-10-25T00:37:46.287Z,12.84
2022-10-25T00:38:48.581Z,12.86
2022-10-25T00:39:50.428Z,12.83
2022-10-25T00:40:52.235Z,12.81
2022-10-25T00:41:54.013Z,12.80
2022-10-25T00:42:55.811Z,12.74
2022-10-25T00:44:17.500Z,12.73
2022-10-25T00:45:24.564Z,12.72
2022-10-25T00:46:31.267Z,12.72
2022-10-25T00:47:45.463Z,12.72
2022-10-25T00:49:02.776Z,12.75
2022-10-25T00:50:11.384Z,12.80
2022-10-25T00:51:13.219Z,12.85
2022-10-25T00:52:15.584Z,12.86
2022-10-25T00:53:22.360Z,12.91
2022-10-25T00:54:27.008Z,12.95
2022-10-25T00:55:29.022Z,12.93
2022-10-25T00:56:33.832Z,12.89
2022-10-25T00:57:55.865Z,12.82
2022-10-25T00:58:59.516Z,12.84
2022-10-25T01:00:01.912Z,12.84
2022-10-25T01:01:06.365Z,12.87
2022-10-25T01:02:08.839Z,12.90
2022-10-25T01:03:11.017Z,12.91
2022-10-25T01:04:16.081Z,12.90
2022-10-25T01:05:18.284Z,12.91
2022-10-25T01:06:39.179Z,12.92
2022-10-25T01:07:41.154Z,12.93
2022-10-25T01:08:43.425Z,12.93
2022-10-25T01:09:45.290Z,12.93
2022-10-25T01:10:47.952Z,12.94
2022-10-25T01:11:49.780Z,12.92
2022-10-25T01:12:52.326Z,12.93
2022-10-25T01:13:54.943Z,12.94
2022-10-25T01:14:57.184Z,12.95
2022-10-25T01:16:05.016Z,12.88
2022-10-25T01:17:33.274Z,12.86
2022-10-25T01:18:48.775Z,12.89
2022-10-25T01:20:06.048Z,12.91
2022-10-25T01:21:19.710Z,12.91
2022-10-25T01:22:31.216Z,12.91
2022-10-25T01:23:53.534Z,12.86
2022-10-25T01:25:04.375Z,12.87
2022-10-25T01:26:06.146Z,12.89
2022-10-25T01:27:26.877Z,12.90
2022-10-25T01:28:28.720Z,12.91
2022-10-25T01:29:49.140Z,12.88
2022-10-25T01:30:53.642Z,12.87
2022-10-25T01:32:03.168Z,12.87
2022-10-25T01:33:16.683Z,12.89
2022-10-25T01:34:23.928Z,12.91
2022-10-25T01:35:31.390Z,12.90
2022-10-25T01:36:33.094Z,12.82
2022-10-25T01:37:40.801Z,12.76
2022-10-25T01:39:01.205Z,12.73
2022-10-25T01:40:07.491Z,12.77
2022-10-25T01:41:09.260Z,12.77
2022-10-25T01:42:24.050Z,12.74
2022-10-25T01:43:40.954Z,12.74
2022-10-25T01:45:01.468Z,12.73
2022-10-25T01:46:06.301Z,12.75
2022-10-25T01:47:16.038Z,12.79
2022-10-25T01:48:21.863Z,12.78
2022-10-25T01:49:28.812Z,12.79
2022-10-25T01:50:33.003Z,12.78
2022-10-25T01:51:38.441Z,12.76
2022-10-25T01:52:40.209Z,12.78
2022-10-25T01:53:46.345Z,12.78
2022-10-25T01:54:48.574Z,12.75
2022-10-25T01:55:54.567Z,12.77
2022-10-25T01:57:05.658Z,12.76
2022-10-25T01:58:07.485Z,12.77
2022-10-25T01:59:18.325Z,12.78
2022-10-25T02:00:21.990Z,12.76
2022-10-25T02:01:23.974Z,12.77
2022-10-25T02:02:25.848Z,12.76
2022-10-25T02:03:50.619Z,12.75
2022-10-25T02:05:18.495Z,12.79
2022-10-25T02:06:46.448Z,12.82
2022-10-25T02:07:57.915Z,12.84
2022-10-25T02:09:03.079Z,12.84
2022-10-25T02:11:16.235Z,12.80
2022-10-25T02:12:21.975Z,12.84
2022-10-25T02:13:29.760Z,12.82
2022-10-25T02:14:42.179Z,12.84
2022-10-25T02:15:58.195Z,12.85
2022-10-25T02:17:06.013Z,12.81
2022-10-25T02:18:12.301Z,12.86
2022-10-25T02:19:18.000Z,12.85
2022-10-25T02:20:21.900Z,12.81
2022-10-25T02:21:25.665Z,12.77
2022-10-25T02:22:29.170Z,12.79
2022-10-25T02:23:32.583Z,12.79
2022-10-25T02:24:35.375Z,12.80
2022-10-25T02:25:39.997Z,12.78
2022-10-25T02:26:43.672Z,12.80
2022-10-25T02:27:46.815Z,12.84
2022-10-25T02:28:49.360Z,12.81
2022-10-25T02:29:52.657Z,12.83
2022-10-25T02:30:56.767Z,12.85
2022-10-25T02:31:58.904Z,12.87
2022-10-25T02:33:00.794Z,12.85
2022-10-25T02:34:02.861Z,12.84
2022-10-25T02:35:04.901Z,12.81
2022-10-25T02:36:06.745Z,12.84
2022-10-25T02:37:08.583Z,12.85
2022-10-25T02:38:10.425Z,12.88
2022-10-25T02:39:12.149Z,12.90
2022-10-25T02:40:14.065Z,12.92
2022-10-25T02:41:15.939Z,12.92
2022-10-25T02:42:17.832Z,12.93
2022-10-25T02:43:19.654Z,12.96
2022-10-25T02:44:21.448Z,12.97
2022-10-25T02:45:23.315Z,12.97
2022-10-25T02:46:25.072Z,12.94
2022-10-25T02:47:26.927Z,12.95
2022-10-25T02:48:28.735Z,12.93
2022-10-25T02:49:30.582Z,12.91
2022-10-25T02:50:32.352Z,12.94
2022-10-25T02:51:34.181Z,12.95
2022-10-25T02:52:36.091Z,12.96
2022-10-25T02:53:38.400Z,12.98
2022-10-25T02:54:40.237Z,12.99
2022-10-25T02:55:42.035Z,12.99
2022-10-25T02:56:43.845Z,13.00
2022-10-25T02:57:45.723Z,13.00
2022-10-25T02:58:47.974Z,12.99
2022-10-25T02:59:49.840Z,12.99
2022-10-25T03:00:51.792Z,12.99
2022-10-25T03:01:53.670Z,12.96
2022-10-25T03:02:55.673Z,12.92
2022-10-25T03:03:57.447Z,12.93
2022-10-25T03:04:59.327Z,12.95
2022-10-25T03:06:01.158Z,12.98
2022-10-25T03:07:03.018Z,13.00
2022-10-25T03:08:04.870Z,13.02
2022-10-25T03:09:06.682Z,13.03
2022-10-25T03:10:08.691Z,13.06
2022-10-25T03:11:11.283Z,13.07
2022-10-25T03:12:13.101Z,13.07
2022-10-25T03:13:15.015Z,13.08
2022-10-25T03:14:16.796Z,13.06
2022-10-25T03:15:18.611Z,13.07
2022-10-25T03:16:20.391Z,13.08
2022-10-25T03:17:22.130Z,13.09
2022-10-25T03:18:24.191Z,13.09
2022-10-25T03:19:26.070Z,13.09
2022-10-25T03:20:27.926Z,13.08
2022-10-25T03:21:29.683Z,13.07
2022-10-25T03:22:32.213Z,13.07
2022-10-25T03:23:34.441Z,13.06
2022-10-25T03:24:36.216Z,13.04
2022-10-25T03:25:38.088Z,13.02
2022-10-25T03:26:39.971Z,13.00
2022-10-25T03:27:41.686Z,12.96
2022-10-25T03:28:43.500Z,12.93
2022-10-25T03:29:45.280Z,12.96
2022-10-25T03:30:47.220Z,12.95
2022-10-25T03:31:49.106Z,12.91
2022-10-25T03:32:50.838Z,12.85
2022-10-25T03:33:52.727Z,12.87
2022-10-25T03:34:54.565Z,12.91
2022-10-25T03:35:56.788Z,12.94
2022-10-25T03:36:59.029Z,12.93
2022-10-25T03:38:00.745Z,12.96
2022-10-25T03:39:02.573Z,12.96
2022-10-25T03:40:04.561Z,12.97
2022-10-25T03:41:06.376Z,12.97
2022-10-25T03:42:08.235Z,12.95
2022-10-25T03:43:10.115Z,12.93
2022-10-25T03:44:11.926Z,12.88
2022-10-25T03:45:13.719Z,12.81
2022-10-25T03:46:15.527Z,12.72
2022-10-25T03:47:17.581Z,12.71
2022-10-25T03:48:19.390Z,12.73
2022-10-25T03:49:21.224Z,12.74
2022-10-25T03:50:22.950Z,12.75
2022-10-25T03:51:24.803Z,12.74
2022-10-25T03:52:26.707Z,12.73
2022-10-25T03:53:28.502Z,12.75
2022-10-25T03:54:30.367Z,12.76
2022-10-25T03:55:32.748Z,12.80
2022-10-25T03:56:34.498Z,12.84
2022-10-25T03:57:36.366Z,12.84
2022-10-25T03:58:38.098Z,12.83
2022-10-25T03:59:39.852Z,12.83
2022-10-25T04:00:41.779Z,12.85
2022-10-25T04:01:43.774Z,12.80
2022-10-25T04:02:45.809Z,12.80
2022-10-25T04:03:47.646Z,12.81
2022-10-25T04:04:49.477Z,12.81
2022-10-25T04:05:51.302Z,12.81
2022-10-25T04:06:53.167Z,12.82
2022-10-25T04:07:54.942Z,12.84
2022-10-25T04:08:57.409Z,12.86
2022-10-25T04:09:59.247Z,12.90
2022-10-25T04:11:01.126Z,12.93
2022-10-25T04:12:02.941Z,12.90
2022-10-25T04:13:04.807Z,12.92
2022-10-25T04:14:06.637Z,12.90
2022-10-25T04:15:08.910Z,12.93
2022-10-25T04:16:10.975Z,12.96
2022-10-25T04:17:12.757Z,12.98
2022-10-25T04:18:14.534Z,13.00
2022-10-25T04:19:16.460Z,13.02
2022-10-25T04:20:18.449Z,13.04
2022-10-25T04:21:20.592Z,13.03
2022-10-25T04:22:22.424Z,13.02
2022-10-25T04:23:24.298Z,13.01
2022-10-25T04:24:26.088Z,12.99
2022-10-25T04:25:28.747Z,13.00
2022-10-25T04:26:30.730Z,12.99
2022-10-25T04:27:32.511Z,12.95
2022-10-25T04:28:34.254Z,12.93
2022-10-25T04:29:36.072Z,12.89
2022-10-25T04:30:38.891Z,12.82
2022-10-25T04:31:40.879Z,12.82
2022-10-25T04:32:42.687Z,12.81
2022-10-25T04:33:48.044Z,12.83
2022-10-25T04:34:50.756Z,12.84
2022-10-25T04:35:53.286Z,12.86
2022-10-25T04:36:55.179Z,12.84
2022-10-25T04:37:57.600Z,12.82
2022-10-25T04:38:59.830Z,12.79
2022-10-25T04:40:01.621Z,12.75
2022-10-25T04:41:03.365Z,12.76
2022-10-25T04:42:05.260Z,12.79
2022-10-25T04:43:07.040Z,12.79
2022-10-25T04:44:09.530Z,12.79
2022-10-25T04:45:11.362Z,12.79
2022-10-25T04:46:13.630Z,12.80
2022-10-25T04:47:15.486Z,12.81
2022-10-25T04:48:17.767Z,12.84
2022-10-25T04:49:19.612Z,12.85
2022-10-25T04:50:21.555Z,12.87
2022-10-25T04:51:23.382Z,12.88
2022-10-25T04:52:25.216Z,12.89
2022-10-25T04:53:27.001Z,12.88
2022-10-25T04:54:28.832Z,12.86
2022-10-25T04:55:31.777Z,12.87
2022-10-25T04:56:34.200Z,12.86
2022-10-25T04:57:36.037Z,12.86
2022-10-25T04:58:37.865Z,12.88
2022-10-25T04:59:39.735Z,12.89
2022-10-25T05:00:41.516Z,12.87
2022-10-25T05:01:43.704Z,12.78
2022-10-25T05:02:46.007Z,12.75
2022-10-25T05:03:49.164Z,12.75
2022-10-25T05:04:50.936Z,12.77
2022-10-25T05:05:52.712Z,12.76
2022-10-25T05:06:54.486Z,12.77
2022-10-25T05:07:56.386Z,12.76
2022-10-25T05:08:58.157Z,12.75
2022-10-25T05:09:59.939Z,12.77
2022-10-25T05:11:01.817Z,12.78
2022-10-25T05:12:03.725Z,12.80
2022-10-25T05:13:05.630Z,12.83
2022-10-25T05:14:07.544Z,12.83
2022-10-25T05:15:10.026Z,12.83
2022-10-25T05:16:22.235Z,12.81
2022-10-25T05:17:24.031Z,12.82
2022-10-25T05:18:25.860Z,12.81
2022-10-25T05:19:27.668Z,12.80
2022-10-25T05:20:29.673Z,12.81
2022-10-25T05:21:31.691Z,12.80
2022-10-25T05:22:33.517Z,12.71
2022-10-25T05:23:35.326Z,12.65
2022-10-25T05:24:37.139Z,12.62
2022-10-25T05:25:38.948Z,12.64
2022-10-25T05:26:40.838Z,12.65
2022-10-25T05:27:42.795Z,12.66
2022-10-25T05:28:45.385Z,12.60
2022-10-25T05:29:47.225Z,12.55
2022-10-25T05:30:48.957Z,12.56
2022-10-25T05:31:50.987Z,12.58
2022-10-25T05:32:52.785Z,12.60
2022-10-25T05:33:56.195Z,12.63
2022-10-25T05:34:57.961Z,12.67
2022-10-25T05:36:00.761Z,12.67
2022-10-25T05:37:02.576Z,12.66
2022-10-25T05:38:04.375Z,12.65
2022-10-25T05:39:06.205Z,12.66
2022-10-25T05:40:08.256Z,12.67
2022-10-25T05:41:11.255Z,12.67
2022-10-25T05:42:13.255Z,12.65
2022-10-25T05:43:15.117Z,12.58
2022-10-25T05:44:17.032Z,12.57
2022-10-25T05:45:18.876Z,12.57
2022-10-25T05:46:21.924Z,12.58
2022-10-25T05:47:23.758Z,12.60
2022-10-25T05:48:25.626Z,12.64
2022-10-25T05:49:27.420Z,12.64
2022-10-25T05:50:29.261Z,12.64
2022-10-25T05:51:36.688Z,12.64
2022-10-25T05:52:42.472Z,12.63
2022-10-25T05:54:04.452Z,12.65
2022-10-25T05:55:06.427Z,12.65
2022-10-25T05:56:08.255Z,12.64
2022-10-25T05:57:10.087Z,12.67
2022-10-25T05:58:12.002Z,12.65
2022-10-25T05:59:14.952Z,12.65
2022-10-25T06:00:17.102Z,12.66
2022-10-25T06:01:20.377Z,12.67
2022-10-25T06:02:22.444Z,12.65
2022-10-25T06:03:24.495Z,12.61
2022-10-25T06:04:26.464Z,12.60
2022-10-25T06:05:28.387Z,12.56
2022-10-25T06:06:30.251Z,12.57
2022-10-25T06:07:32.066Z,12.61
2022-10-25T06:08:34.281Z,12.63
2022-10-25T06:09:36.101Z,12.63
2022-10-25T06:10:37.920Z,12.65
2022-10-25T06:11:40.569Z,12.58
2022-10-25T06:12:42.302Z,12.52
2022-10-25T06:13:44.201Z,12.51
2022-10-25T06:14:45.957Z,12.52
2022-10-25T06:15:47.830Z,12.50
2022-10-25T06:16:49.659Z,12.45
2022-10-25T06:17:51.479Z,12.46
2022-10-25T06:18:54.304Z,12.44
2022-10-25T06:19:56.155Z,12.39
2022-10-25T06:21:01.013Z,12.39
2022-10-25T06:22:03.003Z,12.39
2022-10-25T06:23:08.004Z,12.39
2022-10-25T06:24:12.453Z,12.38
2022-10-25T06:25:14.263Z,12.37
2022-10-25T06:26:17.464Z,12.36
2022-10-25T06:27:19.675Z,12.35
2022-10-25T06:28:21.468Z,12.34
2022-10-25T06:29:23.339Z,12.34
2022-10-25T06:30:25.240Z,12.36
2022-10-25T06:31:27.276Z,12.38
2022-10-25T06:32:29.103Z,12.39
2022-10-25T06:33:31.375Z,12.37
2022-10-25T06:34:33.252Z,12.33
2022-10-25T06:35:35.182Z,12.38
2022-10-25T06:36:37.061Z,12.43
2022-10-25T06:37:38.882Z,12.45
2022-10-25T06:38:40.741Z,12.43
2022-10-25T06:39:42.656Z,12.46
2022-10-25T06:40:44.481Z,12.47
2022-10-25T06:41:46.319Z,12.47
2022-10-25T06:42:48.366Z,12.48
2022-10-25T06:43:50.651Z,12.47
2022-10-25T06:44:52.544Z,12.47
2022-10-25T06:45:54.357Z,12.49
2022-10-25T06:47:16.449Z,12.50
2022-10-25T06:48:18.104Z,12.47
2022-10-25T06:49:19.930Z,12.48
2022-10-25T06:50:21.940Z,12.49
2022-10-25T06:51:24.405Z,12.44
2022-10-25T06:52:26.124Z,12.41
2022-10-25T06:53:27.948Z,12.39
2022-10-25T06:54:29.799Z,12.39
2022-10-25T06:55:31.926Z,12.42
2022-10-25T06:56:34.071Z,12.44
2022-10-25T06:57:35.896Z,12.43
2022-10-25T06:58:38.299Z,12.40
2022-10-25T06:59:40.090Z,12.44
2022-10-25T07:00:43.738Z,12.45
2022-10-25T07:01:48.630Z,12.47
2022-10-25T07:02:57.181Z,12.48
2022-10-25T07:03:59.771Z,12.51
2022-10-25T07:05:01.647Z,12.56
2022-10-25T07:06:07.805Z,12.58
2022-10-25T07:07:10.577Z,12.61
2022-10-25T07:08:12.367Z,12.64
2022-10-25T07:09:16.191Z,12.64
2022-10-25T07:10:18.359Z,12.65
2022-10-25T07:11:20.917Z,12.69
2022-10-25T07:12:22.945Z,12.68
2022-10-25T07:13:24.729Z,12.69
2022-10-25T07:14:26.521Z,12.70
2022-10-25T07:15:28.494Z,12.71
2022-10-25T07:16:30.429Z,12.72
2022-10-25T07:17:32.317Z,12.74
2022-10-25T07:18:34.650Z,12.74
2022-10-25T07:19:36.432Z,12.77
2022-10-25T07:20:38.263Z,12.77
2022-10-25T07:21:40.162Z,12.76
2022-10-25T07:22:42.045Z,12.74
2022-10-25T07:23:44.533Z,12.75
2022-10-25T07:24:46.306Z,12.67
2022-10-25T07:25:48.159Z,12.66
2022-10-25T07:26:50.035Z,12.59
2022-10-25T07:27:51.795Z,12.55
2022-10-25T07:28:54.475Z,12.52
2022-10-25T07:29:56.287Z,12.55
2022-10-25T07:30:58.156Z,12.56
2022-10-25T07:31:59.984Z,12.48
2022-10-25T07:33:03.660Z,12.48
2022-10-25T07:34:06.053Z,12.51
2022-10-25T07:35:07.968Z,12.58
2022-10-25T07:36:11.838Z,12.64
2022-10-25T07:37:13.918Z,12.69
2022-10-25T07:38:16.178Z,12.71
2022-10-25T07:39:18.169Z,12.72
2022-10-25T07:40:20.053Z,12.74
2022-10-25T07:41:21.902Z,12.73
2022-10-25T07:42:23.689Z,12.79
2022-10-25T07:43:29.092Z,12.86
2022-10-25T07:44:30.936Z,12.97
2022-10-25T07:45:32.697Z,13.06
2022-10-25T07:46:34.615Z,13.16
2022-10-25T07:47:36.431Z,13.26
2022-10-25T07:48:38.226Z,13.35
2022-10-25T07:49:40.315Z,13.44
2022-10-25T07:50:42.131Z,13.52
2022-10-25T07:51:44.029Z,13.57
2022-10-25T07:52:46.281Z,13.62
2022-10-25T07:53:48.216Z,13.62
2022-10-25T07:54:50.041Z,13.65
2022-10-25T07:55:52.679Z,13.66
2022-10-25T07:56:54.604Z,13.66
2022-10-25T07:58:00.172Z,13.66
2022-10-25T07:59:02.079Z,13.60
2022-10-25T08:00:04.608Z,13.56
2022-10-25T08:01:09.601Z,13.55
2022-10-25T08:02:12.220Z,13.57
2022-10-25T08:03:15.083Z,13.60
2022-10-25T08:04:17.154Z,13.62
2022-10-25T08:05:18.972Z,13.63
2022-10-25T08:06:21.929Z,13.67
2022-10-25T08:07:23.819Z,13.71
2022-10-25T08:08:25.903Z,13.63
2022-10-25T08:09:37.736Z,13.65
2022-10-25T08:10:41.566Z,13.67
2022-10-25T08:11:43.504Z,13.67
2022-10-25T08:12:45.338Z,13.68
2022-10-25T08:13:49.067Z,13.71
2022-10-25T08:14:50.883Z,13.74
2022-10-25T08:15:53.286Z,13.78
2022-10-25T08:16:55.080Z,13.79
2022-10-25T08:18:00.563Z,13.82
2022-10-25T08:19:02.492Z,13.82
2022-10-25T08:20:04.525Z,13.83
2022-10-25T08:21:06.336Z,13.87
2022-10-25T08:22:09.060Z,13.87
2022-10-25T08:23:10.811Z,13.86
2022-10-25T08:24:12.795Z,13.87
2022-10-25T08:25:15.227Z,13.87
2022-10-25T08:26:17.161Z,13.91
2022-10-25T08:27:18.979Z,13.85
2022-10-25T08:28:21.326Z,13.82
2022-10-25T08:29:23.226Z,13.79
2022-10-25T08:30:25.123Z,13.78
2022-10-25T08:31:27.111Z,13.75
2022-10-25T08:32:29.767Z,13.72
2022-10-25T08:33:32.584Z,13.72
2022-10-25T08:34:34.614Z,13.71
2022-10-25T08:35:36.568Z,13.67
2022-10-25T08:36:38.373Z,13.66
2022-10-25T08:37:40.353Z,13.63
2022-10-25T08:38:42.235Z,13.65
2022-10-25T08:39:44.910Z,13.68
2022-10-25T08:40:49.797Z,13.73
2022-10-25T08:41:53.832Z,13.73
2022-10-25T08:43:13.973Z,13.70
2022-10-25T08:44:33.846Z,13.73
2022-10-25T08:45:35.597Z,13.74
2022-10-25T08:46:40.729Z,13.74
2022-10-25T08:47:44.272Z,13.74
2022-10-25T08:48:48.780Z,13.77
2022-10-25T08:49:50.519Z,13.80
2022-10-25T08:50:53.699Z,13.85
2022-10-25T08:51:57.003Z,13.90
2022-10-25T08:53:01.947Z,13.94
2022-10-25T08:54:06.869Z,14.00
2022-10-25T08:55:26.617Z,14.07
2022-10-25T08:56:28.992Z,14.18
2022-10-25T08:57:33.541Z,14.21
2022-10-25T08:58:37.084Z,14.18
2022-10-25T08:59:40.940Z,14.19
2022-10-25T09:00:44.515Z,14.19
2022-10-25T09:01:52.541Z,14.20
2022-10-25T09:02:55.602Z,14.22
2022-10-25T09:03:59.198Z,14.25
2022-10-25T09:05:01.041Z,14.26
2022-10-25T09:06:10.789Z,14.28
2022-10-25T09:07:37.389Z,14.29
2022-10-25T09:09:05.375Z,14.26
2022-10-25T09:10:14.498Z,14.28
2022-10-25T09:11:28.484Z,14.32
2022-10-25T09:12:38.424Z,14.45
2022-10-25T09:13:40.369Z,14.58
2022-10-25T09:15:01.944Z,14.70
2022-10-25T09:16:19.879Z,14.82
2022-10-25T09:17:29.630Z,14.95
2022-10-25T09:18:44.989Z,15.00
2022-10-25T09:20:01.543Z,15.06
2022-10-25T09:21:11.549Z,15.06
2022-10-25T09:22:25.986Z,15.10
2022-10-25T09:23:27.764Z,15.15
2022-10-25T09:24:56.904Z,15.23
2022-10-25T09:26:03.746Z,15.28
2022-10-25T09:27:07.401Z,15.34
2022-10-25T09:28:17.176Z,15.42
2022-10-25T09:29:25.248Z,15.51
2022-10-25T09:30:28.247Z,15.60
2022-10-25T09:31:31.660Z,15.60
2022-10-25T09:32:40.905Z,15.64
2022-10-25T09:33:45.457Z,15.71
2022-10-25T09:34:47.506Z,15.76
2022-10-25T09:35:53.708Z,15.82
2022-10-25T09:37:00.189Z,15.95
2022-10-25T09:38:13.309Z,16.04
2022-10-25T09:39:35.449Z,16.08
2022-10-25T09:40:47.651Z,16.11
2022-10-25T09:41:54.097Z,16.16
2022-10-25T09:43:08.005Z,16.24
2022-10-25T09:44:17.852Z,16.31
2022-10-25T09:45:26.756Z,16.38
2022-10-25T09:46:38.592Z,16.39
2022-10-25T09:47:46.648Z,16.46
2022-10-25T09:48:48.660Z,16.51
2022-10-25T09:49:53.524Z,16.54
2022-10-25T09:51:11.521Z,16.63
2022-10-25T09:52:18.992Z,16.68
2022-10-25T09:53:23.940Z,16.73
2022-10-25T09:54:29.840Z,16.75
2022-10-25T09:55:37.497Z,16.80
2022-10-25T09:56:41.604Z,16.84
2022-10-25T09:57:43.534Z,16.86
2022-10-25T09:58:47.508Z,16.86
2022-10-25T09:59:50.774Z,16.94
2022-10-25T10:00:53.706Z,17.02
2022-10-25T10:01:55.808Z,17.03
2022-10-25T10:02:57.858Z,17.03
2022-10-25T10:04:11.210Z,17.07
2022-10-25T10:05:14.426Z,17.10
2022-10-25T10:06:21.912Z,17.14
2022-10-25T10:07:30.000Z,17.16
2022-10-25T10:08:33.299Z,17.18
2022-10-25T10:09:36.100Z,17.21
2022-10-25T10:10:38.043Z,17.23
2022-10-25T10:11:40.893Z,17.25
2022-10-25T10:13:01.141Z,17.30
2022-10-25T10:14:15.192Z,17.32
2022-10-25T10:15:25.788Z,17.36
2022-10-25T10:16:31.938Z,17.43
2022-10-25T10:17:33.724Z,17.48
2022-10-25T10:18:35.588Z,17.55
2022-10-25T10:19:37.538Z,17.62
2022-10-25T10:20:39.491Z,17.68
2022-10-25T10:21:44.148Z,17.72
2022-10-25T10:22:53.914Z,17.75
2022-10-25T10:24:02.725Z,17.75
2022-10-25T10:25:05.184Z,17.77
2022-10-25T10:26:30.271Z,17.83
2022-10-25T10:27:33.020Z,17.87
2022-10-25T10:28:35.213Z,17.87
2022-10-25T10:29:38.019Z,17.88
2022-10-25T10:30:40.184Z,17.91
2022-10-25T10:31:43.916Z,17.95
2022-10-25T10:32:45.915Z,18.01
2022-10-25T10:33:51.742Z,18.08
2022-10-25T10:35:00.123Z,18.11
2022-10-25T10:36:34.175Z,18.16
2022-10-25T10:37:36.208Z,18.21
2022-10-25T10:38:38.007Z,18.21
2022-10-25T10:39:55.222Z,18.11
2022-10-25T10:41:21.117Z,18.14
2022-10-25T10:42:23.976Z,18.20
2022-10-25T10:43:32.881Z,18.25
2022-10-25T10:44:34.966Z,18.30
2022-10-25T10:45:36.901Z,18.34
2022-10-25T10:46:44.410Z,18.33
2022-10-25T10:47:56.364Z,18.37
2022-10-25T10:48:59.201Z,18.41
2022-10-25T10:50:02.179Z,18.46
2022-10-25T10:51:06.571Z,18.50
2022-10-25T10:52:39.780Z,18.57
2022-10-25T10:53:41.760Z,18.66
2022-10-25T10:54:46.901Z,18.62
2022-10-25T10:55:50.477Z,18.64
2022-10-25T10:56:59.498Z,18.69
2022-10-25T10:58:05.931Z,18.73
2022-10-25T10:59:24.333Z,18.75
2022-10-25T11:00:28.083Z,18.77
2022-10-25T11:01:33.268Z,18.84
2022-10-25T11:02:38.585Z,18.87
2022-10-25T11:03:59.264Z,18.92
2022-10-25T11:05:02.489Z,19.04
2022-10-25T11:06:16.700Z,19.11
2022-10-25T11:07:26.109Z,19.18
2022-10-25T11:08:27.962Z,19.23
2022-10-25T11:09:29.957Z,19.28
2022-10-25T11:10:33.334Z,19.15
2022-10-25T11:11:35.181Z,19.03
2022-10-25T11:12:41.064Z,19.05
2022-10-25T11:13:51.521Z,19.14
2022-10-25T11:14:56.043Z,19.23
2022-10-25T11:16:12.583Z,19.19
2022-10-25T11:17:26.659Z,19.19
2022-10-25T11:18:38.821Z,19.28
2022-10-25T11:19:43.723Z,19.43
2022-10-25T11:20:54.211Z,19.56
2022-10-25T11:22:33.043Z,19.68
2022-10-25T11:23:41.093Z,19.82
2022-10-25T11:24:58.245Z,19.89
2022-10-25T11:26:08.993Z,19.97
2022-10-25T11:27:17.700Z,20.05
2022-10-25T11:28:45.702Z,20.05
2022-10-25T11:30:09.954Z,20.07
2022-10-25T11:31:11.809Z,20.18
2022-10-25T11:32:13.798Z,20.23
2022-10-25T11:33:15.568Z,20.22
2022-10-25T11:34:37.492Z,20.25
2022-10-25T11:35:48.600Z,20.35
2022-10-25T11:37:02.767Z,20.38
2022-10-25T11:38:27.445Z,20.38
2022-10-25T11:39:37.549Z,20.46
2022-10-25T11:40:41.651Z,20.49
2022-10-25T11:41:51.635Z,20.52
2022-10-25T11:43:05.409Z,20.49
2022-10-25T11:44:09.725Z,20.55
2022-10-25T11:45:11.589Z,20.62
2022-10-25T11:46:29.485Z,20.53
2022-10-25T11:47:43.334Z,20.53
2022-10-25T11:49:08.351Z,20.58
2022-10-25T11:50:14.918Z,20.62
2022-10-25T11:51:28.517Z,20.63
2022-10-25T11:52:42.426Z,20.61
2022-10-25T11:53:57.324Z,20.62
2022-10-25T11:55:18.393Z,20.61
2022-10-25T11:56:35.241Z,20.73
2022-10-25T11:57:46.261Z,20.73
2022-10-25T11:59:14.666Z,20.74
2022-10-25T12:00:19.167Z,20.76
2022-10-25T12:01:39.688Z,20.66
2022-10-25T12:03:00.336Z,20.69
2022-10-25T12:04:24.360Z,20.78
2022-10-25T12:05:44.158Z,20.83
2022-10-25T12:06:48.699Z,20.85
2022-10-25T12:07:53.312Z,20.87
2022-10-25T12:09:15.747Z,20.89
2022-10-25T12:10:17.647Z,20.89
2022-10-25T12:11:23.135Z,20.84
2022-10-25T12:12:27.159Z,20.73
2022-10-25T12:13:34.417Z,20.63
2022-10-25T12:14:41.202Z,20.66
2022-10-25T12:15:44.523Z,20.70
2022-10-25T12:16:46.306Z,20.74
2022-10-25T12:17:50.095Z,20.78
2022-10-25T12:18:57.452Z,20.81
2022-10-25T12:20:02.248Z,20.76
2022-10-25T12:21:05.236Z,20.68
2022-10-25T12:22:15.580Z,20.62
2022-10-25T12:23:20.099Z,20.64
2022-10-25T12:24:23.705Z,20.68
2022-10-25T12:25:34.174Z,20.72
2022-10-25T12:26:37.351Z,20.77
2022-10-25T12:27:40.373Z,20.78
2022-10-25T12:28:46.577Z,20.66
2022-10-25T12:30:07.969Z,20.63
2022-10-25T12:31:14.435Z,20.61
2022-10-25T12:32:23.898Z,20.65
2022-10-25T12:33:25.759Z,20.71
2022-10-25T12:34:39.303Z,20.77
2022-10-25T12:35:45.403Z,20.81
2022-10-25T12:36:49.302Z,20.81
2022-10-25T12:37:56.474Z,20.70
2022-10-25T12:39:02.616Z,20.56
2022-10-25T12:40:05.876Z,20.47
2022-10-25T12:41:09.493Z,20.38
2022-10-25T12:42:23.510Z,20.31
2022-10-25T12:43:33.009Z,20.26
2022-10-25T12:44:34.700Z,20.28
2022-10-25T12:45:42.449Z,20.37
2022-10-25T12:47:04.558Z,20.41
2022-10-25T12:48:09.462Z,20.46
2022-10-25T12:49:33.403Z,20.48
2022-10-25T12:50:48.410Z,20.42
2022-10-25T12:51:50.140Z,20.39
2022-10-25T12:53:20.998Z,20.34
2022-10-25T12:54:22.730Z,20.22
2022-10-25T12:55:36.874Z,20.15
2022-10-25T12:56:41.580Z,20.14
2022-10-25T12:57:47.489Z,20.19
2022-10-25T12:58:57.443Z,20.19
2022-10-25T13:00:05.522Z,20.15
2022-10-25T13:01:11.930Z,20.19
2022-10-25T13:02:16.965Z,20.21
2022-10-25T13:03:34.035Z,20.14
2022-10-25T13:04:54.002Z,20.04
2022-10-25T13:06:05.090Z,19.99
2022-10-25T13:07:07.715Z,20.02
2022-10-25T13:08:10.377Z,20.06
2022-10-25T13:09:14.096Z,20.07
2022-10-25T13:10:18.413Z,19.97
2022-10-25T13:11:20.258Z,19.92
2022-10-25T13:12:23.240Z,19.88
2022-10-25T13:13:51.092Z,19.94
2022-10-25T13:14:56.510Z,20.06
2022-10-25T13:15:59.855Z,20.16
2022-10-25T13:17:16.877Z,20.25
2022-10-25T13:18:29.420Z,20.30
2022-10-25T13:20:53.266Z,20.14
2022-10-25T13:21:55.256Z,20.18
2022-10-25T13:22:57.116Z,20.24
2022-10-25T13:24:00.151Z,20.26
2022-10-25T13:25:02.962Z,20.31
2022-10-25T13:26:08.435Z,20.34
2022-10-25T13:27:13.021Z,20.38
2022-10-25T13:28:14.797Z,20.45
2022-10-25T13:29:49.101Z,20.52
2022-10-25T13:31:10.836Z,20.64
2022-10-25T13:32:31.868Z,20.67
2022-10-25T13:33:33.946Z,20.70
2022-10-25T13:34:36.523Z,20.72
2022-10-25T13:35:38.369Z,20.75
2022-10-25T13:36:46.207Z,20.77
2022-10-25T13:37:49.463Z,20.82
2022-10-25T13:39:03.163Z,20.88
2022-10-25T13:40:06.322Z,21.01
2022-10-25T13:41:19.030Z,21.10
2022-10-25T13:42:31.430Z,21.21
2022-10-25T13:43:33.457Z,21.30
2022-10-25T13:44:37.403Z,21.29
2022-10-25T13:45:43.227Z,21.29
2022-10-25T13:46:45.155Z,21.33
2022-10-25T13:47:48.274Z,21.41
2022-10-25T13:48:50.415Z,21.45
2022-10-25T13:49:52.465Z,21.46
2022-10-25T13:50:55.666Z,21.46
2022-10-25T13:51:59.212Z,21.32
2022-10-25T13:53:03.420Z,21.15
2022-10-25T13:54:08.430Z,20.97
2022-10-25T13:55:14.646Z,20.96
2022-10-25T13:56:18.170Z,20.95
2022-10-25T13:57:38.475Z,20.84
2022-10-25T13:58:42.243Z,20.83
2022-10-25T13:59:49.844Z,20.92
2022-10-25T14:00:53.679Z,21.04
2022-10-25T14:02:08.014Z,20.94
2022-10-25T14:03:09.884Z,20.92
2022-10-25T14:04:34.488Z,20.77